createdAt,value
2023-01-31T00:01:06.670Z,15.10
2023-01-31T00:03:34.202Z,14.98
2023-01-31T00:06:10.315Z,14.90
2023-01-31T00:08:38.430Z,15.15
2023-01-31T00:11:05.957Z,15.77
2023-01-31T00:13:33.488Z,14.57
2023-01-31T00:16:00.923Z,15.45
2023-01-31T00:18:28.454Z,15.55
2023-01-31T00:20:55.879Z,16.00
2023-01-31T00:23:23.313Z,15.40
2023-01-31T00:25:50.672Z,15.65
2023-01-31T00:28:18.213Z,16.30
2023-01-31T00:30:45.528Z,16.02
2023-01-31T00:33:13.017Z,16.25
2023-01-31T00:35:41.605Z,16.02
2023-01-31T00:38:09.108Z,15.30
2023-01-31T00:40:37.216Z,15.27
2023-01-31T00:43:04.706Z,17.52
2023-01-31T00:45:33.219Z,16.48
2023-01-31T00:48:00.586Z,15.35
2023-01-31T00:50:28.700Z,16.85
2023-01-31T00:52:56.104Z,16.40
2023-01-31T00:55:26.127Z,15.82
2023-01-31T00:57:53.873Z,15.55
2023-01-31T01:00:21.429Z,16.38
2023-01-31T01:02:49.195Z,16.58
2023-01-31T01:05:16.663Z,16.42
2023-01-31T01:07:44.148Z,15.85
2023-01-31T01:10:11.909Z,15.60
2023-01-31T01:12:39.644Z,16.05
2023-01-31T01:15:07.532Z,15.50
2023-01-31T01:17:35.105Z,14.82
2023-01-31T01:20:03.925Z,15.10
2023-01-31T01:22:32.174Z,16.65
2023-01-31T01:24:59.606Z,15.13
2023-01-31T01:27:27.534Z,15.20
2023-01-31T01:29:55.208Z,15.20
2023-01-31T01:32:24.294Z,15.88
2023-01-31T01:34:53.034Z,15.07
2023-01-31T01:37:20.607Z,15.32
2023-01-31T01:39:48.816Z,15.48
2023-01-31T01:42:20.882Z,15.32
2023-01-31T01:44:52.231Z,15.30
2023-01-31T01:47:25.923Z,15.60
2023-01-31T01:50:00.778Z,16.67
2023-01-31T01:52:29.747Z,14.75
2023-01-31T01:54:59.694Z,15.27
2023-01-31T01:57:34.352Z,14.52
2023-01-31T02:00:09.576Z,14.23
2023-01-31T02:02:42.470Z,14.98
2023-01-31T02:05:10.166Z,15.65
2023-01-31T02:07:37.681Z,15.10
2023-01-31T02:10:25.429Z,14.40
2023-01-31T02:12:52.940Z,15.20
2023-01-31T02:15:21.498Z,15.25
2023-01-31T02:17:49.415Z,14.25
2023-01-31T02:20:47.016Z,14.48
2023-01-31T02:23:17.517Z,14.52
2023-01-31T02:25:57.172Z,13.55
2023-01-31T02:28:30.827Z,12.25
2023-01-31T02:31:01.338Z,13.20
2023-01-31T02:33:49.251Z,12.90
2023-01-31T02:36:16.681Z,13.35
2023-01-31T02:38:44.165Z,12.25
2023-01-31T02:41:11.710Z,12.48
2023-01-31T02:44:11.647Z,12.07
2023-01-31T02:46:42.201Z,12.55
2023-01-31T02:49:34.781Z,12.07
2023-01-31T02:52:16.704Z,11.80
2023-01-31T02:55:27.026Z,11.25
2023-01-31T02:57:56.854Z,12.07
2023-01-31T03:00:25.681Z,11.00
2023-01-31T03:02:53.249Z,12.00
2023-01-31T03:05:21.662Z,10.68
2023-01-31T03:07:52.992Z,11.20
2023-01-31T03:10:21.247Z,10.65
2023-01-31T03:13:07.422Z,11.38
2023-01-31T03:16:12.606Z,11.32
2023-01-31T03:18:55.903Z,11.55
2023-01-31T03:21:28.491Z,9.98
2023-01-31T03:23:56.923Z,11.45
2023-01-31T03:26:25.637Z,11.27
2023-01-31T03:28:57.299Z,10.25
2023-01-31T03:31:31.164Z,11.05
2023-01-31T03:34:00.519Z,11.20
2023-01-31T03:36:46.283Z,11.13
2023-01-31T03:39:54.794Z,10.90
2023-01-31T03:42:25.159Z,10.85
2023-01-31T03:44:54.097Z,12.20
2023-01-31T03:47:27.116Z,11.23
2023-01-31T03:49:55.912Z,12.43
2023-01-31T03:52:36.080Z,11.95
2023-01-31T03:55:08.286Z,10.60
2023-01-31T03:57:40.329Z,12.25
2023-01-31T04:00:09.874Z,12.55
2023-01-31T04:02:49.677Z,13.00
2023-01-31T04:05:19.540Z,12.20
2023-01-31T04:07:49.523Z,13.40
2023-01-31T04:10:23.064Z,11.40
2023-01-31T04:12:50.485Z,11.38
2023-01-31T04:15:18.612Z,10.85
2023-01-31T04:17:46.315Z,12.10
2023-01-31T04:20:13.765Z,10.93
2023-01-31T04:22:41.295Z,12.20
2023-01-31T04:25:08.948Z,11.57
2023-01-31T04:27:37.032Z,12.13
2023-01-31T04:30:04.679Z,12.38
2023-01-31T04:32:32.160Z,12.45
2023-01-31T04:35:01.386Z,13.07
2023-01-31T04:37:29.849Z,16.48
2023-01-31T04:39:57.197Z,12.85
2023-01-31T04:42:24.642Z,13.75
2023-01-31T04:44:52.019Z,12.43
2023-01-31T04:47:19.486Z,11.68
2023-01-31T04:49:46.930Z,12.45
2023-01-31T04:52:14.369Z,12.70
2023-01-31T04:54:42.448Z,10.68
2023-01-31T04:57:10.006Z,11.55
2023-01-31T04:59:37.420Z,11.70
2023-01-31T05:02:04.833Z,10.82
2023-01-31T05:04:32.743Z,9.88
2023-01-31T05:07:00.304Z,10.80
2023-01-31T05:09:27.767Z,9.95
2023-01-31T05:11:55.184Z,9.93
2023-01-31T05:14:22.564Z,9.60
2023-01-31T05:16:49.938Z,10.68
2023-01-31T05:19:17.402Z,10.85
2023-01-31T05:21:59.796Z,8.93
2023-01-31T05:24:34.385Z,8.65
2023-01-31T05:27:02.486Z,9.13
2023-01-31T05:29:31.320Z,9.77
2023-01-31T05:31:59.841Z,8.73
2023-01-31T05:34:28.821Z,10.02
2023-01-31T05:36:56.356Z,10.80
2023-01-31T05:39:23.848Z,10.70
2023-01-31T05:41:52.799Z,10.25
2023-01-31T05:44:20.786Z,11.38
2023-01-31T05:46:48.240Z,10.50
2023-01-31T05:49:15.684Z,10.32
2023-01-31T05:51:43.161Z,10.80
2023-01-31T05:54:11.746Z,10.98
2023-01-31T05:56:39.420Z,10.82
2023-01-31T05:59:07.086Z,11.30
2023-01-31T06:01:34.524Z,12.32
2023-01-31T06:04:02.112Z,12.30
2023-01-31T06:06:29.622Z,11.85
2023-01-31T06:08:57.062Z,11.82
2023-01-31T06:11:25.389Z,14.98
2023-01-31T06:13:54.705Z,13.07
2023-01-31T06:16:22.152Z,12.55
2023-01-31T06:18:49.669Z,13.93
2023-01-31T06:21:17.176Z,16.30
2023-01-31T06:23:46.360Z,15.02
2023-01-31T06:26:13.853Z,14.48
2023-01-31T06:28:41.410Z,12.85
2023-01-31T06:31:09.742Z,12.60
2023-01-31T06:33:45.896Z,12.40
2023-01-31T06:36:17.305Z,13.30
2023-01-31T06:38:49.199Z,14.27
2023-01-31T06:41:16.616Z,14.15
2023-01-31T06:43:44.010Z,11.75
2023-01-31T06:46:11.529Z,13.57
2023-01-31T06:48:38.998Z,15.13
2023-01-31T06:51:06.546Z,15.90
2023-01-31T06:53:33.897Z,15.55
2023-01-31T06:56:01.326Z,15.73
2023-01-31T06:58:28.718Z,17.33
2023-01-31T07:00:56.197Z,18.27
2023-01-31T07:03:23.563Z,17.02
2023-01-31T07:05:51.071Z,16.35
2023-01-31T07:08:18.415Z,17.90
2023-01-31T07:10:45.789Z,16.10
2023-01-31T07:13:13.227Z,15.40
2023-01-31T07:15:40.708Z,15.40
2023-01-31T07:18:08.186Z,14.85
2023-01-31T07:20:35.623Z,14.20
2023-01-31T07:23:03.480Z,12.13
2023-01-31T07:25:34.070Z,13.18
2023-01-31T07:28:02.150Z,14.63
2023-01-31T07:30:30.401Z,13.73
2023-01-31T07:32:58.094Z,12.82
2023-01-31T07:35:25.474Z,12.60
2023-01-31T07:37:53.609Z,12.52
2023-01-31T07:40:21.211Z,11.88
2023-01-31T07:42:49.145Z,13.23
2023-01-31T07:45:23.316Z,12.27
2023-01-31T07:47:51.596Z,12.60
2023-01-31T07:50:19.233Z,12.13
2023-01-31T07:52:49.180Z,12.85
2023-01-31T07:55:16.842Z,13.18
2023-01-31T07:57:44.248Z,12.77
2023-01-31T08:00:31.012Z,13.75
2023-01-31T08:03:17.247Z,12.15
2023-01-31T08:05:46.881Z,13.50
2023-01-31T08:08:14.685Z,13.18
2023-01-31T08:10:42.119Z,14.15
2023-01-31T08:13:11.877Z,13.55
2023-01-31T08:15:39.333Z,13.85
2023-01-31T08:18:06.797Z,14.18
2023-01-31T08:20:37.340Z,15.82
2023-01-31T08:23:04.893Z,14.63
2023-01-31T08:25:32.393Z,14.63
2023-01-31T08:28:00.567Z,14.95
2023-01-31T08:30:28.422Z,13.85
2023-01-31T08:32:56.556Z,14.63
2023-01-31T08:35:24.083Z,14.48
2023-01-31T08:37:51.580Z,14.90
2023-01-31T08:40:19.360Z,16.50
2023-01-31T08:42:54.219Z,14.75
2023-01-31T08:45:22.154Z,15.57
2023-01-31T08:47:49.836Z,15.25
2023-01-31T08:50:27.172Z,15.57
2023-01-31T08:53:00.278Z,14.88
2023-01-31T08:55:29.195Z,15.75
2023-01-31T08:58:00.085Z,15.90
2023-01-31T09:00:28.015Z,16.67
2023-01-31T09:02:56.310Z,16.60
2023-01-31T09:05:24.283Z,17.45
2023-01-31T09:07:52.054Z,22.42
2023-01-31T09:10:20.001Z,18.20
2023-01-31T09:12:47.393Z,18.23
2023-01-31T09:15:15.484Z,19.77
2023-01-31T09:17:43.919Z,16.27
2023-01-31T09:20:11.712Z,17.45
2023-01-31T09:22:39.164Z,16.88
2023-01-31T09:25:07.038Z,17.48
2023-01-31T09:27:34.463Z,17.80
2023-01-31T09:30:02.059Z,18.05
2023-01-31T09:32:30.212Z,18.02
2023-01-31T09:34:57.615Z,17.63
2023-01-31T09:37:25.101Z,16.90
2023-01-31T09:39:52.590Z,14.98
2023-01-31T09:42:30.826Z,16.80
2023-01-31T09:45:03.519Z,16.08
2023-01-31T09:47:46.627Z,17.58
2023-01-31T09:50:14.108Z,17.67
2023-01-31T09:52:41.510Z,17.30
2023-01-31T09:55:16.046Z,16.67
2023-01-31T09:57:49.607Z,16.48
2023-01-31T10:00:25.693Z,16.23
2023-01-31T10:03:08.407Z,14.63
2023-01-31T10:05:41.866Z,15.40
2023-01-31T10:08:37.325Z,15.05
2023-01-31T10:11:07.239Z,14.93
2023-01-31T10:13:55.624Z,15.57
2023-01-31T10:16:23.092Z,15.35
2023-01-31T10:18:54.048Z,13.50
2023-01-31T10:21:26.638Z,12.73
2023-01-31T10:23:56.512Z,14.23
2023-01-31T10:26:23.988Z,12.48
2023-01-31T10:28:57.453Z,12.93
2023-01-31T10:31:32.130Z,13.75
2023-01-31T10:34:02.637Z,14.13
2023-01-31T10:36:34.003Z,14.98
2023-01-31T10:39:01.709Z,12.35
2023-01-31T10:41:35.269Z,13.00
2023-01-31T10:44:06.448Z,13.75
2023-01-31T10:46:35.127Z,12.23
2023-01-31T10:49:03.459Z,14.57
2023-01-31T10:51:33.632Z,12.93
2023-01-31T10:54:16.391Z,11.45
2023-01-31T10:56:50.295Z,11.70
2023-01-31T10:59:20.822Z,11.18
2023-01-31T11:01:48.249Z,10.40
2023-01-31T11:04:24.511Z,11.55
2023-01-31T11:06:52.612Z,11.75
2023-01-31T11:09:22.026Z,11.77
2023-01-31T11:12:00.043Z,12.18
2023-01-31T11:14:29.982Z,11.07
2023-01-31T11:17:02.528Z,12.63
2023-01-31T11:19:39.727Z,11.68
2023-01-31T11:22:07.926Z,13.07
2023-01-31T11:24:37.880Z,12.45
2023-01-31T11:27:08.242Z,12.55
2023-01-31T11:29:38.140Z,13.00
2023-01-31T11:32:17.816Z,12.63
2023-01-31T11:34:56.252Z,12.57
2023-01-31T11:37:23.706Z,11.90
2023-01-31T11:39:58.615Z,11.73
2023-01-31T11:42:26.500Z,11.23
2023-01-31T11:45:04.091Z,12.38
2023-01-31T11:47:34.358Z,11.82
2023-01-31T11:50:02.695Z,11.68
2023-01-31T11:52:32.086Z,14.02
2023-01-31T11:55:09.396Z,14.68
2023-01-31T11:57:37.851Z,13.98
2023-01-31T12:00:07.196Z,13.88
2023-01-31T12:02:39.499Z,15.13
2023-01-31T12:05:14.657Z,14.73
2023-01-31T12:07:44.740Z,14.43
2023-01-31T12:10:30.905Z,16.13
2023-01-31T12:13:18.970Z,15.00
2023-01-31T12:15:49.938Z,14.50
2023-01-31T12:18:22.228Z,14.20
2023-01-31T12:20:54.959Z,14.50
2023-01-31T12:23:25.538Z,14.90
2023-01-31T12:25:57.717Z,14.25
2023-01-31T12:28:32.402Z,14.30
2023-01-31T12:31:38.479Z,15.65
2023-01-31T12:34:32.030Z,14.93
2023-01-31T12:37:18.167Z,14.40
2023-01-31T12:39:54.425Z,15.88
2023-01-31T12:42:24.537Z,13.32
2023-01-31T12:45:21.610Z,13.80
2023-01-31T12:47:57.778Z,14.32
2023-01-31T12:50:40.256Z,13.18
2023-01-31T12:53:14.083Z,14.75
2023-01-31T12:55:44.375Z,13.73
2023-01-31T12:58:18.078Z,14.25
2023-01-31T13:00:52.501Z,13.95
2023-01-31T13:03:29.029Z,14.17
2023-01-31T13:05:59.704Z,15.65
2023-01-31T13:08:29.600Z,14.13
2023-01-31T13:11:04.129Z,15.40
2023-01-31T13:13:38.633Z,14.13
2023-01-31T13:16:32.561Z,14.75
2023-01-31T13:19:04.229Z,14.60
2023-01-31T13:21:34.979Z,14.27
2023-01-31T13:24:17.978Z,14.57
2023-01-31T13:26:47.719Z,14.75
2023-01-31T13:29:18.692Z,15.18
2023-01-31T13:31:46.209Z,15.40
2023-01-31T13:34:20.239Z,15.75
2023-01-31T13:36:53.380Z,14.90
2023-01-31T13:39:26.977Z,13.95
2023-01-31T13:41:54.444Z,16.98
2023-01-31T13:44:21.875Z,14.52
2023-01-31T13:46:55.305Z,15.88
2023-01-31T13:49:28.233Z,14.05
2023-01-31T13:51:59.777Z,15.05
2023-01-31T13:54:36.071Z,15.25
2023-01-31T13:57:04.584Z,14.95
2023-01-31T13:59:33.322Z,15.75
2023-01-31T14:02:02.288Z,15.85
2023-01-31T14:04:31.814Z,15.68
2023-01-31T14:07:08.287Z,15.55
2023-01-31T14:09:36.647Z,16.58
2023-01-31T14:12:17.117Z,16.98
2023-01-31T14:14:48.718Z,15.90
2023-01-31T14:17:16.222Z,16.02
2023-01-31T14:19:43.698Z,16.60
2023-01-31T14:22:18.869Z,15.80
2023-01-31T14:25:00.286Z,16.65
2023-01-31T14:27:32.612Z,17.35
2023-01-31T14:30:06.016Z,17.17
2023-01-31T14:32:40.388Z,17.23
2023-01-31T14:35:14.003Z,17.10
2023-01-31T14:37:53.598Z,17.85
2023-01-31T14:40:28.546Z,19.08
2023-01-31T14:43:11.433Z,19.85
2023-01-31T14:45:57.225Z,18.65
2023-01-31T14:48:38.375Z,18.08
2023-01-31T14:51:12.548Z,17.08
2023-01-31T14:53:39.992Z,15.63
2023-01-31T14:56:07.434Z,16.05
2023-01-31T14:58:36.164Z,14.85
2023-01-31T15:01:06.341Z,13.68
2023-01-31T15:03:40.341Z,14.38
2023-01-31T15:06:16.301Z,15.20
2023-01-31T15:08:48.064Z,20.02
2023-01-31T15:11:41.069Z,19.70
2023-01-31T15:14:34.761Z,18.77
2023-01-31T15:17:03.812Z,16.30
2023-01-31T15:19:40.396Z,16.48
2023-01-31T15:22:09.204Z,14.40
2023-01-31T15:24:38.880Z,17.10
2023-01-31T15:27:16.706Z,18.88
2023-01-31T15:29:59.411Z,17.27
2023-01-31T15:32:28.720Z,17.27
2023-01-31T15:34:58.099Z,34.72
2023-01-31T15:37:27.698Z,52.00
2023-01-31T15:40:18.475Z,51.58
2023-01-31T15:42:46.004Z,60.30
2023-01-31T15:45:24.453Z,66.80
2023-01-31T15:47:58.785Z,67.43
2023-01-31T15:50:27.237Z,63.28
2023-01-31T15:52:55.924Z,65.40
2023-01-31T15:55:23.765Z,61.97
2023-01-31T15:57:56.819Z,85.95
2023-01-31T16:00:29.881Z,78.22
2023-01-31T16:03:00.936Z,79.20
2023-01-31T16:05:31.606Z,92.88
2023-01-31T16:07:59.860Z,77.13
2023-01-31T16:10:28.311Z,68.75
2023-01-31T16:12:56.136Z,71.68
2023-01-31T16:15:27.972Z,72.65
2023-01-31T16:17:56.631Z,85.65
2023-01-31T16:20:37.699Z,84.28
2023-01-31T16:23:05.696Z,80.45
2023-01-31T16:25:35.891Z,80.78
2023-01-31T16:28:08.015Z,64.68
2023-01-31T16:30:35.536Z,58.17
2023-01-31T16:33:02.979Z,40.60
2023-01-31T16:35:30.650Z,42.72
2023-01-31T16:38:01.186Z,41.35
2023-01-31T16:40:36.305Z,42.47
2023-01-31T16:43:09.589Z,46.00
2023-01-31T16:45:37.355Z,43.58
2023-01-31T16:48:32.490Z,35.58
2023-01-31T16:51:01.003Z,40.08
2023-01-31T16:53:32.808Z,33.88
2023-01-31T16:56:15.403Z,32.42
2023-01-31T16:58:47.907Z,30.52
2023-01-31T17:01:17.602Z,26.85
2023-01-31T17:04:02.408Z,25.75
2023-01-31T17:06:29.987Z,36.15
2023-01-31T17:08:57.472Z,48.60
2023-01-31T17:11:41.612Z,79.72
2023-01-31T17:14:10.130Z,74.53
2023-01-31T17:16:37.553Z,75.97
2023-01-31T17:19:05.033Z,85.05
2023-01-31T17:21:34.018Z,83.47
2023-01-31T17:24:01.668Z,84.72
2023-01-31T17:26:29.097Z,100.03
2023-01-31T17:29:01.861Z,142.60
2023-01-31T17:31:31.412Z,104.18
2023-01-31T17:33:59.082Z,82.15
2023-01-31T17:36:26.508Z,116.68
2023-01-31T17:38:54.039Z,98.75
2023-01-31T17:41:24.698Z,107.93
2023-01-31T17:43:52.434Z,123.05
2023-01-31T17:46:20.172Z,72.75
2023-01-31T17:48:47.670Z,71.68
2023-01-31T17:51:15.145Z,55.35
2023-01-31T17:53:49.999Z,37.30
2023-01-31T17:56:18.806Z,32.05
2023-01-31T17:58:46.487Z,38.95
2023-01-31T18:01:14.518Z,30.67
2023-01-31T18:03:42.904Z,22.45
2023-01-31T18:06:11.391Z,28.98
2023-01-31T18:08:39.326Z,53.35
2023-01-31T18:11:11.267Z,82.75
2023-01-31T18:13:39.148Z,76.18
2023-01-31T18:16:08.044Z,76.80
2023-01-31T18:18:40.612Z,63.05
2023-01-31T18:21:12.068Z,68.15
2023-01-31T18:23:39.567Z,64.07
2023-01-31T18:26:07.388Z,42.17
2023-01-31T18:28:35.242Z,45.95
2023-01-31T18:31:08.185Z,70.45
2023-01-31T18:33:35.771Z,66.85
2023-01-31T18:36:03.963Z,58.88
2023-01-31T18:38:31.656Z,58.97
2023-01-31T18:41:00.347Z,62.25
2023-01-31T18:43:30.710Z,61.70
2023-01-31T18:45:58.194Z,64.80
2023-01-31T18:48:25.693Z,66.57
2023-01-31T18:50:53.146Z,62.22
2023-01-31T18:53:20.643Z,63.70
2023-01-31T18:55:48.057Z,62.35
2023-01-31T18:58:16.550Z,67.72
2023-01-31T19:00:44.393Z,92.95
2023-01-31T19:03:11.941Z,92.10
2023-01-31T19:05:39.359Z,80.30
2023-01-31T19:08:06.826Z,71.25
2023-01-31T19:10:34.875Z,64.90
2023-01-31T19:13:02.368Z,47.67
2023-01-31T19:15:29.801Z,48.75
2023-01-31T19:17:57.587Z,49.17
2023-01-31T19:20:25.744Z,49.28
2023-01-31T19:22:53.254Z,50.40
2023-01-31T19:25:20.926Z,50.20
2023-01-31T19:27:48.555Z,50.33
2023-01-31T19:30:16.114Z,49.67
2023-01-31T19:32:43.559Z,48.88
2023-01-31T19:35:11.046Z,47.00
2023-01-31T19:37:38.493Z,47.25
2023-01-31T19:40:06.184Z,48.80
2023-01-31T19:42:33.736Z,43.75
2023-01-31T19:45:01.144Z,46.00
2023-01-31T19:47:28.719Z,45.55
2023-01-31T19:49:56.180Z,43.53
2023-01-31T19:52:23.636Z,35.50
2023-01-31T19:54:51.099Z,37.70
2023-01-31T19:57:18.605Z,35.30
2023-01-31T19:59:46.087Z,37.33
2023-01-31T20:02:13.645Z,38.05
2023-01-31T20:04:41.153Z,35.50
2023-01-31T20:07:08.864Z,36.03
2023-01-31T20:09:36.223Z,41.40
2023-01-31T20:12:03.748Z,30.27
2023-01-31T20:14:31.651Z,50.03
2023-01-31T20:16:59.236Z,56.53
2023-01-31T20:19:26.747Z,59.97
2023-01-31T20:21:54.404Z,57.80
2023-01-31T20:24:21.973Z,28.17
2023-01-31T20:26:49.482Z,20.50
2023-01-31T20:29:17.091Z,19.27
2023-01-31T20:31:44.702Z,18.50
2023-01-31T20:34:12.202Z,17.33
2023-01-31T20:36:39.680Z,18.08
2023-01-31T20:39:07.110Z,18.08
2023-01-31T20:41:34.525Z,18.90
2023-01-31T20:44:02.142Z,18.73
2023-01-31T20:46:29.879Z,19.75
2023-01-31T20:48:58.414Z,20.40
2023-01-31T20:51:26.063Z,20.27
2023-01-31T20:53:53.484Z,21.35
2023-01-31T20:56:20.948Z,21.83
2023-01-31T20:58:48.345Z,21.55
2023-01-31T21:01:16.322Z,19.38
2023-01-31T21:03:43.765Z,22.08
2023-01-31T21:06:11.400Z,22.90
2023-01-31T21:08:40.080Z,22.33
2023-01-31T21:11:08.801Z,21.83
2023-01-31T21:13:36.649Z,21.48
2023-01-31T21:16:05.343Z,23.13
2023-01-31T21:18:34.010Z,27.20
2023-01-31T21:21:07.392Z,28.33
2023-01-31T21:23:35.371Z,24.35
2023-01-31T21:26:03.385Z,22.80
2023-01-31T21:28:30.832Z,23.85
2023-01-31T21:31:02.035Z,21.50
2023-01-31T21:33:29.659Z,22.20
2023-01-31T21:35:58.349Z,20.58
2023-01-31T21:38:26.259Z,18.02
2023-01-31T21:41:13.611Z,18.75
2023-01-31T21:43:41.166Z,18.20
2023-01-31T21:46:12.213Z,19.33
2023-01-31T21:48:39.878Z,19.85
2023-01-31T21:51:08.960Z,21.98
2023-01-31T21:53:36.528Z,20.55
2023-01-31T21:56:08.101Z,19.35
2023-01-31T21:58:36.146Z,19.83
2023-01-31T22:01:07.692Z,21.90
2023-01-31T22:03:35.674Z,21.88
2023-01-31T22:06:04.397Z,24.40
2023-01-31T22:08:32.445Z,31.80
2023-01-31T22:11:02.716Z,48.40
2023-01-31T22:13:30.379Z,45.55
2023-01-31T22:16:01.713Z,29.65
2023-01-31T22:18:29.421Z,27.13
2023-01-31T22:21:02.935Z,19.33
2023-01-31T22:23:30.590Z,16.20
2023-01-31T22:25:57.988Z,13.82
2023-01-31T22:28:26.962Z,13.27
2023-01-31T22:31:00.572Z,13.13
2023-01-31T22:33:28.123Z,11.52
2023-01-31T22:35:55.637Z,11.27
2023-01-31T22:38:23.060Z,11.55
2023-01-31T22:40:50.564Z,8.90
2023-01-31T22:43:21.440Z,8.13
2023-01-31T22:45:49.911Z,8.25
2023-01-31T22:48:18.227Z,7.80
2023-01-31T22:50:46.300Z,7.55
2023-01-31T22:53:13.729Z,7.78
2023-01-31T22:55:41.920Z,7.65
2023-01-31T22:58:10.177Z,8.95
2023-01-31T23:00:38.383Z,8.57
2023-01-31T23:03:05.912Z,8.02
2023-01-31T23:05:33.408Z,8.18
2023-01-31T23:08:00.936Z,8.43
2023-01-31T23:10:28.379Z,9.32
2023-01-31T23:12:56.110Z,9.18
2023-01-31T23:15:23.552Z,10.18
2023-01-31T23:17:51.029Z,9.43
2023-01-31T23:20:19.811Z,9.55
2023-01-31T23:22:47.489Z,10.63
2023-01-31T23:25:15.404Z,9.85
2023-01-31T23:27:43.628Z,10.90
2023-01-31T23:30:11.934Z,10.32
2023-01-31T23:32:42.106Z,11.15
2023-01-31T23:35:10.951Z,11.25
2023-01-31T23:37:38.734Z,11.05
2023-01-31T23:40:06.910Z,10.68
2023-01-31T23:42:34.449Z,10.70
2023-01-31T23:45:01.931Z,11.35
2023-01-31T23:47:29.435Z,11.18
2023-01-31T23:49:56.852Z,10.98
2023-01-31T23:52:24.741Z,10.52
2023-01-31T23:54:52.183Z,10.70
2023-01-31T23:57:19.661Z,10.68
2023-01-31T23:59:47.195Z,10.98
